セブ の空港の天気 - METARとTAF

マクタン・セブ国際空港 ( RPVM / CEB ) - フィリピン セブ / ラプ=ラプ
飛行場実況気象(Metar)
観測時間05/25 18:00 +08 (05/25 10:00 UTC)
風向・風速東北東 2m/s
視程10km以上
天気現象
少しの雲 雲底高度 550m
全天の8割程度の雲 雲底高度 9140m
気温29℃
湿度79%
気圧1008hPa
METARRPVM 251000Z 06003KT 9999 FEW018CB BKN300 29/25 Q1008 NOSIG RMK A2977 CB S
過去の天気等 Google飛行場航空写真 Wunderground天気予報

過去48時間のMETAR

飛行場予報(TAF)
発表時間: 5/25 13:00 +08 (5/25 05:00 UTC)
予報対象時間: 25日14時 +08 ~ 26日20時 +08
風向・風速南東 3m/s
視程10km以上
少しの雲 雲底高度 610m
全天の8割程度の雲 雲底高度 9,140m
25日14時 +08 ~ 25日20時 +08 に一時的に
風向・風速南 4m/s
視程9,000m
天気現象弱いしゅう雨
少しの積乱雲 雲底高度 550m
少しの雲 雲底高度 610m
全天の8割程度の雲 雲底高度 3,050m
25日20時 +08 ~ 26日2時 +08 に一時的に
風向・風速南南西 3m/s
少しの積乱雲 雲底高度 550m
少しの雲 雲底高度 610m
全天の8割程度の雲 雲底高度 3,050m
TAF RPVM 250500Z 2506/2612 14006KT 9999 FEW020 BKN300
TEMPO 2506/2512 18008KT 9000 -SHRA FEW018CB FEW020 BKN100
TEMPO 2512/2518 20006KT FEW018CB FEW020 BKN100